EGXU

RAF Linton-On-Ouse Airport

Linton-On-Ouse, United Kingdom
METAR EGXU 221350Z AUTO 26008KT 9999 // BKN120/// 13/06 Q1015
Observed Flight Rules
Sep-22 @ 13:50 UTC (an hour ago) Visual Flight Rules
Wind Visibility Clouds
260° at 8 knots 10,000+ meters
Temperatures Readings
Current 13°C / 55°F
Dewpoint 6°C / 43°F
Humidity 63%
Altimeter 29.97" Hg
Pressure 1015 hPa
Elevation 16
METAR EGXU 221350Z AUTO 26008KT 9999 // BKN120/// 13/06 Q1015
Observed Flight Rules
Sep-22 @ 13:50 UTC
(an hour ago)
VFR
Wind Visibility
260° at 8 knots 10,000+ meters
Clouds
Temperature Dewpoint
13°C / 55°F 6°C / 43°F
Humidity Altimeter Pressure
63% 29.97" Hg 1015 hPa